sensor_id;sensor_type;location;lat;lon;timestamp;temperature;humidity
1447;DHT22;717;51.522;7.266;2023-07-31T00:02:10;20.00;99.90
1447;DHT22;717;51.522;7.266;2023-07-31T00:04:43;20.00;99.90
1447;DHT22;717;51.522;7.266;2023-07-31T00:07:13;20.00;99.90
1447;DHT22;717;51.522;7.266;2023-07-31T00:09:43;20.10;99.90
1447;DHT22;717;51.522;7.266;2023-07-31T00:12:13;20.20;99.90
1447;DHT22;717;51.522;7.266;2023-07-31T00:14:43;20.20;99.90
1447;DHT22;717;51.522;7.266;2023-07-31T00:17:13;20.20;99.90
1447;DHT22;717;51.522;7.266;2023-07-31T00:19:46;20.20;99.90
1447;DHT22;717;51.522;7.266;2023-07-31T00:22:17;20.10;99.90
1447;DHT22;717;51.522;7.266;2023-07-31T00:24:47;20.10;99.90
1447;DHT22;717;51.522;7.266;2023-07-31T00:27:17;20.00;99.90
1447;DHT22;717;51.522;7.266;2023-07-31T00:29:47;20.00;99.90
1447;DHT22;717;51.522;7.266;2023-07-31T00:32:17;20.00;99.90
1447;DHT22;717;51.522;7.266;2023-07-31T00:34:50;20.00;99.90
1447;DHT22;717;51.522;7.266;2023-07-31T00:37:20;19.90;99.90
1447;DHT22;717;51.522;7.266;2023-07-31T00:39:50;19.90;99.90
1447;DHT22;717;51.522;7.266;2023-07-31T00:42:20;19.80;99.90
1447;DHT22;717;51.522;7.266;2023-07-31T00:44:50;19.80;99.90
1447;DHT22;717;51.522;7.266;2023-07-31T00:47:20;19.80;99.90
1447;DHT22;717;51.522;7.266;2023-07-31T00:49:55;19.70;99.90
1447;DHT22;717;51.522;7.266;2023-07-31T00:52:25;19.80;99.90
1447;DHT22;717;51.522;7.266;2023-07-31T00:54:55;19.80;99.90
1447;DHT22;717;51.522;7.266;2023-07-31T00:57:25;19.80;99.90
1447;DHT22;717;51.522;7.266;2023-07-31T00:59:55;19.90;99.90
1447;DHT22;717;51.522;7.266;2023-07-31T01:02:26;19.90;99.90
1447;DHT22;717;51.522;7.266;2023-07-31T01:04:59;19.90;99.90
1447;DHT22;717;51.522;7.266;2023-07-31T01:07:35;19.80;99.90
1447;DHT22;717;51.522;7.266;2023-07-31T01:10:14;19.80;99.90
1447;DHT22;717;51.522;7.266;2023-07-31T01:12:45;19.80;99.90
1447;DHT22;717;51.522;7.266;2023-07-31T01:15:16;19.80;99.90
1447;DHT22;717;51.522;7.266;2023-07-31T01:17:47;19.90;99.90
1447;DHT22;717;51.522;7.266;2023-07-31T01:20:21;19.80;99.90
1447;DHT22;717;51.522;7.266;2023-07-31T01:23:11;19.80;99.90
1447;DHT22;717;51.522;7.266;2023-07-31T01:26:05;19.80;99.90
1447;DHT22;717;51.522;7.266;2023-07-31T01:28:46;19.80;99.90
1447;DHT22;717;51.522;7.266;2023-07-31T01:31:21;19.80;99.90
1447;DHT22;717;51.522;7.266;2023-07-31T01:33:56;19.80;99.90
1447;DHT22;717;51.522;7.266;2023-07-31T01:36:28;19.80;99.90
1447;DHT22;717;51.522;7.266;2023-07-31T01:38:59;19.80;99.90
1447;DHT22;717;51.522;7.266;2023-07-31T01:41:33;19.80;99.90
1447;DHT22;717;51.522;7.266;2023-07-31T01:44:05;19.80;99.90
1447;DHT22;717;51.522;7.266;2023-07-31T01:46:35;19.80;99.90
1447;DHT22;717;51.522;7.266;2023-07-31T01:49:06;19.70;99.90
1447;DHT22;717;51.522;7.266;2023-07-31T01:51:36;19.80;99.90
1447;DHT22;717;51.522;7.266;2023-07-31T01:54:07;19.80;99.90
1447;DHT22;717;51.522;7.266;2023-07-31T01:56:41;19.80;99.90
1447;DHT22;717;51.522;7.266;2023-07-31T01:59:11;19.80;99.90
1447;DHT22;717;51.522;7.266;2023-07-31T02:01:41;19.90;99.90
1447;DHT22;717;51.522;7.266;2023-07-31T02:04:11;19.80;99.90
1447;DHT22;717;51.522;7.266;2023-07-31T02:06:43;19.70;99.90
1447;DHT22;717;51.522;7.266;2023-07-31T02:09:13;19.70;99.90
1447;DHT22;717;51.522;7.266;2023-07-31T02:11:46;19.80;99.90
1447;DHT22;717;51.522;7.266;2023-07-31T02:14:16;19.80;99.90
1447;DHT22;717;51.522;7.266;2023-07-31T02:16:46;19.80;99.90
1447;DHT22;717;51.522;7.266;2023-07-31T02:19:16;19.80;99.90
1447;DHT22;717;51.522;7.266;2023-07-31T02:21:46;19.80;99.90
1447;DHT22;717;51.522;7.266;2023-07-31T02:24:17;19.80;99.90
1447;DHT22;717;51.522;7.266;2023-07-31T02:26:49;19.80;99.90
1447;DHT22;717;51.522;7.266;2023-07-31T02:29:19;19.90;99.90
1447;DHT22;717;51.522;7.266;2023-07-31T02:31:49;19.90;99.90
1447;DHT22;717;51.522;7.266;2023-07-31T02:34:19;19.90;99.90
1447;DHT22;717;51.522;7.266;2023-07-31T02:36:49;19.90;99.90
1447;DHT22;717;51.522;7.266;2023-07-31T02:39:19;19.90;99.90
1447;DHT22;717;51.522;7.266;2023-07-31T02:41:52;19.90;99.90
1447;DHT22;717;51.522;7.266;2023-07-31T02:44:23;19.90;99.90
1447;DHT22;717;51.522;7.266;2023-07-31T02:46:53;19.90;99.90
1447;DHT22;717;51.522;7.266;2023-07-31T02:49:23;19.90;99.90
1447;DHT22;717;51.522;7.266;2023-07-31T02:51:53;19.90;99.90
1447;DHT22;717;51.522;7.266;2023-07-31T02:54:23;19.90;99.90
1447;DHT22;717;51.522;7.266;2023-07-31T02:56:55;19.90;99.90
1447;DHT22;717;51.522;7.266;2023-07-31T02:59:28;19.90;99.90
1447;DHT22;717;51.522;7.266;2023-07-31T03:01:58;19.90;99.90
1447;DHT22;717;51.522;7.266;2023-07-31T03:04:28;19.90;99.90
1447;DHT22;717;51.522;7.266;2023-07-31T03:06:58;19.90;99.90
1447;DHT22;717;51.522;7.266;2023-07-31T03:09:28;19.90;99.90
1447;DHT22;717;51.522;7.266;2023-07-31T03:12:00;19.90;99.90
1447;DHT22;717;51.522;7.266;2023-07-31T03:14:30;19.90;99.90
1447;DHT22;717;51.522;7.266;2023-07-31T03:17:01;19.90;99.90
1447;DHT22;717;51.522;7.266;2023-07-31T03:19:31;19.90;99.90
1447;DHT22;717;51.522;7.266;2023-07-31T03:22:01;19.90;99.90
1447;DHT22;717;51.522;7.266;2023-07-31T03:24:32;19.90;99.90
1447;DHT22;717;51.522;7.266;2023-07-31T03:27:05;19.90;99.90
1447;DHT22;717;51.522;7.266;2023-07-31T03:29:35;19.90;99.90
1447;DHT22;717;51.522;7.266;2023-07-31T03:32:06;19.90;99.90
1447;DHT22;717;51.522;7.266;2023-07-31T03:34:36;19.90;99.90
1447;DHT22;717;51.522;7.266;2023-07-31T03:37:07;19.80;99.90
1447;DHT22;717;51.522;7.266;2023-07-31T03:39:37;19.80;99.90
1447;DHT22;717;51.522;7.266;2023-07-31T03:42:10;19.90;99.90
1447;DHT22;717;51.522;7.266;2023-07-31T03:44:40;19.90;99.90
1447;DHT22;717;51.522;7.266;2023-07-31T03:47:10;19.90;99.90
1447;DHT22;717;51.522;7.266;2023-07-31T03:49:40;19.90;99.90
1447;DHT22;717;51.522;7.266;2023-07-31T03:52:10;19.80;99.90
1447;DHT22;717;51.522;7.266;2023-07-31T03:54:40;19.90;99.90
1447;DHT22;717;51.522;7.266;2023-07-31T03:57:14;19.80;99.90
1447;DHT22;717;51.522;7.266;2023-07-31T03:59:44;19.80;99.90
1447;DHT22;717;51.522;7.266;2023-07-31T04:02:14;19.80;99.90
1447;DHT22;717;51.522;7.266;2023-07-31T04:04:45;19.90;99.90
1447;DHT22;717;51.522;7.266;2023-07-31T04:07:15;19.90;99.90
1447;DHT22;717;51.522;7.266;2023-07-31T04:09:45;19.90;99.90
1447;DHT22;717;51.522;7.266;2023-07-31T04:12:18;19.90;99.90
1447;DHT22;717;51.522;7.266;2023-07-31T04:14:49;19.90;99.90
1447;DHT22;717;51.522;7.266;2023-07-31T04:17:19;19.90;99.90
1447;DHT22;717;51.522;7.266;2023-07-31T04:19:49;19.90;99.90
1447;DHT22;717;51.522;7.266;2023-07-31T04:22:19;19.90;99.90
1447;DHT22;717;51.522;7.266;2023-07-31T04:24:49;19.90;99.90
1447;DHT22;717;51.522;7.266;2023-07-31T04:27:22;19.90;99.90
1447;DHT22;717;51.522;7.266;2023-07-31T04:29:52;19.90;99.90
1447;DHT22;717;51.522;7.266;2023-07-31T04:32:22;19.90;99.90
1447;DHT22;717;51.522;7.266;2023-07-31T04:34:52;19.90;99.90
1447;DHT22;717;51.522;7.266;2023-07-31T04:37:22;19.80;99.90
1447;DHT22;717;51.522;7.266;2023-07-31T04:39:52;19.80;99.90
1447;DHT22;717;51.522;7.266;2023-07-31T04:42:25;19.90;99.90
1447;DHT22;717;51.522;7.266;2023-07-31T04:44:55;19.90;99.90
1447;DHT22;717;51.522;7.266;2023-07-31T04:47:25;19.90;99.90
1447;DHT22;717;51.522;7.266;2023-07-31T04:49:55;19.90;99.90
1447;DHT22;717;51.522;7.266;2023-07-31T04:52:25;19.90;99.90
1447;DHT22;717;51.522;7.266;2023-07-31T04:54:55;19.90;99.90
1447;DHT22;717;51.522;7.266;2023-07-31T04:57:27;20.00;99.90
1447;DHT22;717;51.522;7.266;2023-07-31T04:59:57;20.00;99.90
1447;DHT22;717;51.522;7.266;2023-07-31T05:02:27;20.10;99.90
1447;DHT22;717;51.522;7.266;2023-07-31T05:04:58;20.10;99.90
1447;DHT22;717;51.522;7.266;2023-07-31T05:07:28;20.10;99.90
1447;DHT22;717;51.522;7.266;2023-07-31T05:09:58;20.10;99.90
1447;DHT22;717;51.522;7.266;2023-07-31T05:12:31;20.10;99.90
1447;DHT22;717;51.522;7.266;2023-07-31T05:15:01;20.00;99.90
1447;DHT22;717;51.522;7.266;2023-07-31T05:17:31;20.10;99.90
1447;DHT22;717;51.522;7.266;2023-07-31T05:20:01;20.10;99.90
1447;DHT22;717;51.522;7.266;2023-07-31T05:22:31;20.10;99.90
1447;DHT22;717;51.522;7.266;2023-07-31T05:25:01;20.20;99.90
1447;DHT22;717;51.522;7.266;2023-07-31T05:27:34;20.20;99.90
1447;DHT22;717;51.522;7.266;2023-07-31T05:30:05;20.20;99.90
1447;DHT22;717;51.522;7.266;2023-07-31T05:32:35;20.20;99.90
1447;DHT22;717;51.522;7.266;2023-07-31T05:35:06;20.20;99.90
1447;DHT22;717;51.522;7.266;2023-07-31T05:37:36;20.30;99.90
1447;DHT22;717;51.522;7.266;2023-07-31T05:40:07;20.30;99.90
1447;DHT22;717;51.522;7.266;2023-07-31T05:42:40;20.20;99.90
1447;DHT22;717;51.522;7.266;2023-07-31T05:45:10;20.30;99.90
1447;DHT22;717;51.522;7.266;2023-07-31T05:47:41;20.30;99.90
1447;DHT22;717;51.522;7.266;2023-07-31T05:50:10;20.30;99.90
1447;DHT22;717;51.522;7.266;2023-07-31T05:52:41;20.30;99.90
1447;DHT22;717;51.522;7.266;2023-07-31T05:55:11;20.30;99.90
1447;DHT22;717;51.522;7.266;2023-07-31T05:57:44;20.20;99.90
1447;DHT22;717;51.522;7.266;2023-07-31T06:00:14;20.20;99.90
1447;DHT22;717;51.522;7.266;2023-07-31T06:02:44;20.20;99.90
1447;DHT22;717;51.522;7.266;2023-07-31T06:05:15;20.10;99.90
1447;DHT22;717;51.522;7.266;2023-07-31T06:07:45;20.10;99.90
1447;DHT22;717;51.522;7.266;2023-07-31T06:10:15;20.10;99.90
1447;DHT22;717;51.522;7.266;2023-07-31T06:12:48;20.20;99.90
1447;DHT22;717;51.522;7.266;2023-07-31T06:15:19;20.20;99.90
1447;DHT22;717;51.522;7.266;2023-07-31T06:17:49;20.20;99.90
1447;DHT22;717;51.522;7.266;2023-07-31T06:20:20;20.20;99.90
1447;DHT22;717;51.522;7.266;2023-07-31T06:22:52;20.20;99.90
1447;DHT22;717;51.522;7.266;2023-07-31T06:25:22;20.30;99.90
1447;DHT22;717;51.522;7.266;2023-07-31T06:27:55;20.30;99.90
1447;DHT22;717;51.522;7.266;2023-07-31T06:30:25;20.30;99.90
1447;DHT22;717;51.522;7.266;2023-07-31T06:32:55;20.30;99.90
1447;DHT22;717;51.522;7.266;2023-07-31T06:35:25;20.40;99.90
1447;DHT22;717;51.522;7.266;2023-07-31T06:37:55;20.30;99.90
1447;DHT22;717;51.522;7.266;2023-07-31T06:40:26;20.40;99.90
1447;DHT22;717;51.522;7.266;2023-07-31T06:42:58;20.40;99.90
1447;DHT22;717;51.522;7.266;2023-07-31T06:45:35;20.40;99.90
1447;DHT22;717;51.522;7.266;2023-07-31T06:48:05;20.40;99.90
1447;DHT22;717;51.522;7.266;2023-07-31T06:50:35;20.50;99.90
1447;DHT22;717;51.522;7.266;2023-07-31T06:53:05;20.50;99.90
1447;DHT22;717;51.522;7.266;2023-07-31T06:55:35;20.50;99.90
1447;DHT22;717;51.522;7.266;2023-07-31T06:58:08;20.50;99.90
1447;DHT22;717;51.522;7.266;2023-07-31T07:00:38;20.50;99.90
1447;DHT22;717;51.522;7.266;2023-07-31T07:03:08;20.50;99.90
1447;DHT22;717;51.522;7.266;2023-07-31T07:05:38;20.50;99.90
1447;DHT22;717;51.522;7.266;2023-07-31T07:08:08;20.50;99.90
1447;DHT22;717;51.522;7.266;2023-07-31T07:10:38;20.50;99.90
1447;DHT22;717;51.522;7.266;2023-07-31T07:13:11;20.50;99.90
1447;DHT22;717;51.522;7.266;2023-07-31T07:15:42;20.50;99.90
1447;DHT22;717;51.522;7.266;2023-07-31T07:18:12;20.50;99.90
1447;DHT22;717;51.522;7.266;2023-07-31T07:20:46;20.50;99.90
1447;DHT22;717;51.522;7.266;2023-07-31T07:23:17;20.50;99.90
1447;DHT22;717;51.522;7.266;2023-07-31T07:25:47;20.50;99.90
1447;DHT22;717;51.522;7.266;2023-07-31T07:28:23;20.50;99.90
1447;DHT22;717;51.522;7.266;2023-07-31T07:30:53;20.40;99.90
1447;DHT22;717;51.522;7.266;2023-07-31T07:33:24;20.50;99.90
1447;DHT22;717;51.522;7.266;2023-07-31T07:35:54;20.50;99.90
1447;DHT22;717;51.522;7.266;2023-07-31T07:38:24;20.40;99.90
1447;DHT22;717;51.522;7.266;2023-07-31T07:40:54;20.40;99.90
1447;DHT22;717;51.522;7.266;2023-07-31T07:43:27;20.40;99.90
1447;DHT22;717;51.522;7.266;2023-07-31T07:45:57;20.40;99.90
1447;DHT22;717;51.522;7.266;2023-07-31T07:48:28;20.40;99.90
1447;DHT22;717;51.522;7.266;2023-07-31T07:50:58;20.40;99.90
1447;DHT22;717;51.522;7.266;2023-07-31T07:53:28;20.40;99.90
1447;DHT22;717;51.522;7.266;2023-07-31T07:55:58;20.40;99.90
1447;DHT22;717;51.522;7.266;2023-07-31T07:58:31;20.30;99.90
1447;DHT22;717;51.522;7.266;2023-07-31T08:01:00;20.30;99.90
1447;DHT22;717;51.522;7.266;2023-07-31T08:03:31;20.30;99.90
1447;DHT22;717;51.522;7.266;2023-07-31T08:06:01;20.20;99.90
1447;DHT22;717;51.522;7.266;2023-07-31T08:08:31;20.20;99.90
1447;DHT22;717;51.522;7.266;2023-07-31T08:11:01;20.20;99.90
1447;DHT22;717;51.522;7.266;2023-07-31T08:13:34;20.20;99.90
1447;DHT22;717;51.522;7.266;2023-07-31T08:16:06;20.10;99.90
1447;DHT22;717;51.522;7.266;2023-07-31T08:18:37;20.10;99.90
1447;DHT22;717;51.522;7.266;2023-07-31T08:21:08;20.10;99.90
1447;DHT22;717;51.522;7.266;2023-07-31T08:23:38;20.10;99.90
1447;DHT22;717;51.522;7.266;2023-07-31T08:26:14;20.00;99.90
1447;DHT22;717;51.522;7.266;2023-07-31T08:28:47;20.10;99.90
1447;DHT22;717;51.522;7.266;2023-07-31T08:31:18;20.00;99.90
1447;DHT22;717;51.522;7.266;2023-07-31T08:33:48;20.00;99.90
1447;DHT22;717;51.522;7.266;2023-07-31T08:36:19;20.00;99.90
1447;DHT22;717;51.522;7.266;2023-07-31T08:38:49;19.90;99.90
1447;DHT22;717;51.522;7.266;2023-07-31T08:41:19;19.90;99.90
1447;DHT22;717;51.522;7.266;2023-07-31T08:43:53;19.90;99.90
1447;DHT22;717;51.522;7.266;2023-07-31T08:46:25;19.90;99.90
1447;DHT22;717;51.522;7.266;2023-07-31T08:48:55;19.90;99.90
1447;DHT22;717;51.522;7.266;2023-07-31T08:51:26;19.90;99.90
1447;DHT22;717;51.522;7.266;2023-07-31T08:53:56;19.90;99.90
1447;DHT22;717;51.522;7.266;2023-07-31T08:56:27;19.90;99.90
1447;DHT22;717;51.522;7.266;2023-07-31T08:59:02;19.90;99.90
1447;DHT22;717;51.522;7.266;2023-07-31T09:01:37;19.90;99.90
1447;DHT22;717;51.522;7.266;2023-07-31T09:04:13;19.90;99.90
1447;DHT22;717;51.522;7.266;2023-07-31T09:06:44;19.90;99.90
1447;DHT22;717;51.522;7.266;2023-07-31T09:09:15;19.80;99.90
1447;DHT22;717;51.522;7.266;2023-07-31T09:11:48;19.80;99.90
1447;DHT22;717;51.522;7.266;2023-07-31T09:14:21;19.80;99.90
1447;DHT22;717;51.522;7.266;2023-07-31T09:16:53;19.80;99.90
1447;DHT22;717;51.522;7.266;2023-07-31T09:19:27;19.70;99.90
1447;DHT22;717;51.522;7.266;2023-07-31T09:21:57;19.70;99.90
1447;DHT22;717;51.522;7.266;2023-07-31T09:24:29;19.70;99.90
1447;DHT22;717;51.522;7.266;2023-07-31T09:27:01;19.70;99.90
1447;DHT22;717;51.522;7.266;2023-07-31T09:29:34;19.80;99.90
1447;DHT22;717;51.522;7.266;2023-07-31T09:32:05;19.80;99.90
1447;DHT22;717;51.522;7.266;2023-07-31T09:34:45;19.90;99.90
1447;DHT22;717;51.522;7.266;2023-07-31T09:37:15;19.90;99.90
1447;DHT22;717;51.522;7.266;2023-07-31T09:39:46;19.90;99.90
1447;DHT22;717;51.522;7.266;2023-07-31T09:42:25;19.90;99.90
1447;DHT22;717;51.522;7.266;2023-07-31T09:45:10;19.90;99.90
1447;DHT22;717;51.522;7.266;2023-07-31T09:47:48;19.90;99.90
1447;DHT22;717;51.522;7.266;2023-07-31T09:50:20;19.90;99.90
1447;DHT22;717;51.522;7.266;2023-07-31T09:52:51;19.90;99.90
1447;DHT22;717;51.522;7.266;2023-07-31T09:55:21;19.90;99.90
1447;DHT22;717;51.522;7.266;2023-07-31T09:57:52;19.90;99.90
1447;DHT22;717;51.522;7.266;2023-07-31T10:00:28;19.90;99.90
1447;DHT22;717;51.522;7.266;2023-07-31T10:03:01;19.90;99.90
1447;DHT22;717;51.522;7.266;2023-07-31T10:05:34;20.00;99.90
1447;DHT22;717;51.522;7.266;2023-07-31T10:08:06;20.00;99.90
1447;DHT22;717;51.522;7.266;2023-07-31T10:10:41;20.00;99.90
1447;DHT22;717;51.522;7.266;2023-07-31T10:13:13;20.00;99.90
1447;DHT22;717;51.522;7.266;2023-07-31T10:15:46;20.00;99.90
1447;DHT22;717;51.522;7.266;2023-07-31T10:18:17;20.10;99.90
1447;DHT22;717;51.522;7.266;2023-07-31T10:20:48;20.10;99.90
1447;DHT22;717;51.522;7.266;2023-07-31T10:23:19;20.10;99.90
1447;DHT22;717;51.522;7.266;2023-07-31T10:25:50;20.10;99.90
1447;DHT22;717;51.522;7.266;2023-07-31T10:28:21;20.00;99.90
1447;DHT22;717;51.522;7.266;2023-07-31T10:30:55;20.00;99.90
1447;DHT22;717;51.522;7.266;2023-07-31T10:33:25;20.00;99.90
1447;DHT22;717;51.522;7.266;2023-07-31T10:36:13;20.10;99.90
1447;DHT22;717;51.522;7.266;2023-07-31T10:38:44;20.10;99.90
1447;DHT22;717;51.522;7.266;2023-07-31T10:41:15;20.10;99.90
1447;DHT22;717;51.522;7.266;2023-07-31T10:43:46;20.20;99.90
1447;DHT22;717;51.522;7.266;2023-07-31T10:46:19;20.20;99.90
1447;DHT22;717;51.522;7.266;2023-07-31T10:48:57;20.20;99.90
1447;DHT22;717;51.522;7.266;2023-07-31T10:51:33;20.20;99.90
1447;DHT22;717;51.522;7.266;2023-07-31T10:54:13;20.20;99.90
1447;DHT22;717;51.522;7.266;2023-07-31T10:56:45;20.20;99.90
1447;DHT22;717;51.522;7.266;2023-07-31T10:59:16;20.10;99.90
1447;DHT22;717;51.522;7.266;2023-07-31T11:01:54;20.20;99.90
1447;DHT22;717;51.522;7.266;2023-07-31T11:04:25;20.20;99.90
1447;DHT22;717;51.522;7.266;2023-07-31T11:06:59;20.20;99.90
1447;DHT22;717;51.522;7.266;2023-07-31T11:09:30;20.10;99.90
1447;DHT22;717;51.522;7.266;2023-07-31T11:12:01;20.20;99.90
1447;DHT22;717;51.522;7.266;2023-07-31T11:14:31;20.20;99.90
1447;DHT22;717;51.522;7.266;2023-07-31T11:17:08;20.20;99.90
1447;DHT22;717;51.522;7.266;2023-07-31T11:19:38;20.20;99.90
1447;DHT22;717;51.522;7.266;2023-07-31T11:22:08;20.20;99.90
1447;DHT22;717;51.522;7.266;2023-07-31T11:24:39;20.20;99.90
1447;DHT22;717;51.522;7.266;2023-07-31T11:27:09;20.20;99.90
1447;DHT22;717;51.522;7.266;2023-07-31T11:29:39;20.20;99.90
1447;DHT22;717;51.522;7.266;2023-07-31T11:32:18;20.30;99.90
1447;DHT22;717;51.522;7.266;2023-07-31T11:34:52;20.30;99.90
1447;DHT22;717;51.522;7.266;2023-07-31T11:37:23;20.30;99.90
1447;DHT22;717;51.522;7.266;2023-07-31T11:39:59;20.40;99.90
1447;DHT22;717;51.522;7.266;2023-07-31T11:42:30;20.40;99.90
1447;DHT22;717;51.522;7.266;2023-07-31T11:45:02;20.40;99.90
1447;DHT22;717;51.522;7.266;2023-07-31T11:47:37;20.40;99.90
1447;DHT22;717;51.522;7.266;2023-07-31T11:50:11;20.40;99.90
1447;DHT22;717;51.522;7.266;2023-07-31T11:52:44;20.40;99.90
1447;DHT22;717;51.522;7.266;2023-07-31T11:55:16;20.50;99.90
1447;DHT22;717;51.522;7.266;2023-07-31T11:57:47;20.50;99.90
1447;DHT22;717;51.522;7.266;2023-07-31T12:00:18;20.50;99.90
1447;DHT22;717;51.522;7.266;2023-07-31T12:02:51;20.50;99.90
1447;DHT22;717;51.522;7.266;2023-07-31T12:05:22;20.50;99.90
1447;DHT22;717;51.522;7.266;2023-07-31T12:07:54;20.50;99.90
1447;DHT22;717;51.522;7.266;2023-07-31T12:10:26;20.60;99.90
1447;DHT22;717;51.522;7.266;2023-07-31T12:13:00;20.60;99.90
1447;DHT22;717;51.522;7.266;2023-07-31T12:15:35;20.60;99.90
1447;DHT22;717;51.522;7.266;2023-07-31T12:18:10;20.60;99.90
1447;DHT22;717;51.522;7.266;2023-07-31T12:20:42;20.70;99.90
1447;DHT22;717;51.522;7.266;2023-07-31T12:23:17;20.60;99.90
1447;DHT22;717;51.522;7.266;2023-07-31T12:26:00;20.70;99.90
1447;DHT22;717;51.522;7.266;2023-07-31T12:28:34;20.60;99.90
1447;DHT22;717;51.522;7.266;2023-07-31T12:31:05;20.70;99.90
1447;DHT22;717;51.522;7.266;2023-07-31T12:33:40;20.70;99.90
1447;DHT22;717;51.522;7.266;2023-07-31T12:36:11;20.70;99.90
1447;DHT22;717;51.522;7.266;2023-07-31T12:38:42;20.70;99.90
1447;DHT22;717;51.522;7.266;2023-07-31T12:41:15;20.70;99.90
1447;DHT22;717;51.522;7.266;2023-07-31T12:43:51;20.70;99.90
1447;DHT22;717;51.522;7.266;2023-07-31T12:46:21;20.70;99.90
1447;DHT22;717;51.522;7.266;2023-07-31T12:48:54;20.70;99.90
1447;DHT22;717;51.522;7.266;2023-07-31T12:51:24;20.70;99.90
1447;DHT22;717;51.522;7.266;2023-07-31T12:53:54;20.70;99.90
1447;DHT22;717;51.522;7.266;2023-07-31T12:56:24;20.80;99.90
1447;DHT22;717;51.522;7.266;2023-07-31T12:58:54;20.80;99.90
1447;DHT22;717;51.522;7.266;2023-07-31T13:01:25;20.80;99.90
1447;DHT22;717;51.522;7.266;2023-07-31T13:03:57;20.80;99.90
1447;DHT22;717;51.522;7.266;2023-07-31T13:06:28;20.80;99.90
1447;DHT22;717;51.522;7.266;2023-07-31T13:08:58;20.80;99.90
1447;DHT22;717;51.522;7.266;2023-07-31T13:11:28;20.90;99.90
1447;DHT22;717;51.522;7.266;2023-07-31T13:13:58;20.80;99.90
1447;DHT22;717;51.522;7.266;2023-07-31T13:16:28;20.90;99.90
1447;DHT22;717;51.522;7.266;2023-07-31T13:19:01;20.90;99.90
1447;DHT22;717;51.522;7.266;2023-07-31T13:21:31;20.90;99.90
1447;DHT22;717;51.522;7.266;2023-07-31T13:24:04;20.90;99.90
1447;DHT22;717;51.522;7.266;2023-07-31T13:26:34;21.00;99.90
1447;DHT22;717;51.522;7.266;2023-07-31T13:29:04;20.90;99.90
1447;DHT22;717;51.522;7.266;2023-07-31T13:31:34;21.00;99.90
1447;DHT22;717;51.522;7.266;2023-07-31T13:34:07;21.00;99.90
1447;DHT22;717;51.522;7.266;2023-07-31T13:36:37;21.00;99.90
1447;DHT22;717;51.522;7.266;2023-07-31T13:39:09;20.90;99.90
1447;DHT22;717;51.522;7.266;2023-07-31T13:41:39;21.00;99.90
1447;DHT22;717;51.522;7.266;2023-07-31T13:44:09;21.00;99.90
1447;DHT22;717;51.522;7.266;2023-07-31T13:46:39;21.00;99.90
1447;DHT22;717;51.522;7.266;2023-07-31T13:49:12;21.00;99.90
1447;DHT22;717;51.522;7.266;2023-07-31T13:51:42;21.10;99.90
1447;DHT22;717;51.522;7.266;2023-07-31T13:54:13;21.10;99.90
1447;DHT22;717;51.522;7.266;2023-07-31T13:56:44;21.10;99.90
1447;DHT22;717;51.522;7.266;2023-07-31T13:59:14;21.10;99.90
1447;DHT22;717;51.522;7.266;2023-07-31T14:01:45;21.10;99.90
1447;DHT22;717;51.522;7.266;2023-07-31T14:04:18;21.10;99.90
1447;DHT22;717;51.522;7.266;2023-07-31T14:06:48;21.10;99.90
1447;DHT22;717;51.522;7.266;2023-07-31T14:09:19;21.20;99.90
1447;DHT22;717;51.522;7.266;2023-07-31T14:11:48;21.20;99.90
1447;DHT22;717;51.522;7.266;2023-07-31T14:14:18;21.20;99.90
1447;DHT22;717;51.522;7.266;2023-07-31T14:16:49;21.20;99.90
1447;DHT22;717;51.522;7.266;2023-07-31T14:19:23;21.20;99.90
1447;DHT22;717;51.522;7.266;2023-07-31T14:21:53;21.20;99.90
1447;DHT22;717;51.522;7.266;2023-07-31T14:24:37;21.20;99.90
1447;DHT22;717;51.522;7.266;2023-07-31T14:27:08;21.20;99.90
1447;DHT22;717;51.522;7.266;2023-07-31T14:29:38;21.30;99.90
1447;DHT22;717;51.522;7.266;2023-07-31T14:32:08;21.30;99.90
1447;DHT22;717;51.522;7.266;2023-07-31T14:34:41;21.30;99.90
1447;DHT22;717;51.522;7.266;2023-07-31T14:37:12;21.30;99.90
1447;DHT22;717;51.522;7.266;2023-07-31T14:39:42;21.30;99.90
1447;DHT22;717;51.522;7.266;2023-07-31T14:42:12;21.40;99.90
1447;DHT22;717;51.522;7.266;2023-07-31T14:44:43;21.40;99.90
1447;DHT22;717;51.522;7.266;2023-07-31T14:47:14;21.40;99.90
1447;DHT22;717;51.522;7.266;2023-07-31T14:49:46;21.40;99.90
1447;DHT22;717;51.522;7.266;2023-07-31T14:52:16;21.40;99.90
1447;DHT22;717;51.522;7.266;2023-07-31T14:54:47;21.40;99.90
1447;DHT22;717;51.522;7.266;2023-07-31T14:57:17;21.40;99.90
1447;DHT22;717;51.522;7.266;2023-07-31T14:59:47;21.40;99.90
1447;DHT22;717;51.522;7.266;2023-07-31T15:02:17;21.50;99.90
1447;DHT22;717;51.522;7.266;2023-07-31T15:04:50;21.40;99.90
1447;DHT22;717;51.522;7.266;2023-07-31T15:07:20;21.40;99.90
1447;DHT22;717;51.522;7.266;2023-07-31T15:09:51;21.50;99.90
1447;DHT22;717;51.522;7.266;2023-07-31T15:12:21;21.40;99.90
1447;DHT22;717;51.522;7.266;2023-07-31T15:14:51;21.40;99.90
1447;DHT22;717;51.522;7.266;2023-07-31T15:17:21;21.40;99.90
1447;DHT22;717;51.522;7.266;2023-07-31T15:19:54;21.40;99.90
1447;DHT22;717;51.522;7.266;2023-07-31T15:22:27;21.40;99.90
1447;DHT22;717;51.522;7.266;2023-07-31T15:24:57;21.40;99.90
1447;DHT22;717;51.522;7.266;2023-07-31T15:27:28;21.40;99.90
1447;DHT22;717;51.522;7.266;2023-07-31T15:29:58;21.40;99.90
1447;DHT22;717;51.522;7.266;2023-07-31T15:32:28;21.40;99.90
1447;DHT22;717;51.522;7.266;2023-07-31T15:35:00;21.40;99.90
1447;DHT22;717;51.522;7.266;2023-07-31T15:37:30;21.30;99.90
1447;DHT22;717;51.522;7.266;2023-07-31T15:40:00;21.30;99.90
1447;DHT22;717;51.522;7.266;2023-07-31T15:42:30;21.40;99.90
1447;DHT22;717;51.522;7.266;2023-07-31T15:45:08;21.40;99.90
1447;DHT22;717;51.522;7.266;2023-07-31T15:47:38;21.40;99.90
1447;DHT22;717;51.522;7.266;2023-07-31T15:50:11;21.40;99.90
1447;DHT22;717;51.522;7.266;2023-07-31T15:52:41;21.40;99.90
1447;DHT22;717;51.522;7.266;2023-07-31T15:55:11;21.50;99.90
1447;DHT22;717;51.522;7.266;2023-07-31T15:57:41;21.40;99.90
1447;DHT22;717;51.522;7.266;2023-07-31T16:00:12;21.50;99.90
1447;DHT22;717;51.522;7.266;2023-07-31T16:02:42;21.50;99.90
1447;DHT22;717;51.522;7.266;2023-07-31T16:05:15;21.40;99.90
1447;DHT22;717;51.522;7.266;2023-07-31T16:07:46;21.40;99.90
1447;DHT22;717;51.522;7.266;2023-07-31T16:10:16;21.40;99.90
1447;DHT22;717;51.522;7.266;2023-07-31T16:12:47;21.50;99.90
1447;DHT22;717;51.522;7.266;2023-07-31T16:15:17;21.50;99.90
1447;DHT22;717;51.522;7.266;2023-07-31T16:17:47;21.50;99.90
1447;DHT22;717;51.522;7.266;2023-07-31T16:20:20;21.50;99.90
1447;DHT22;717;51.522;7.266;2023-07-31T16:22:50;21.50;99.90
1447;DHT22;717;51.522;7.266;2023-07-31T16:25:20;21.50;99.90
1447;DHT22;717;51.522;7.266;2023-07-31T16:27:50;21.50;99.90
1447;DHT22;717;51.522;7.266;2023-07-31T16:30:20;21.50;99.90
1447;DHT22;717;51.522;7.266;2023-07-31T16:32:50;21.50;99.90
1447;DHT22;717;51.522;7.266;2023-07-31T16:35:23;21.50;99.90
1447;DHT22;717;51.522;7.266;2023-07-31T16:37:53;21.40;99.90
1447;DHT22;717;51.522;7.266;2023-07-31T16:40:23;21.40;99.90
1447;DHT22;717;51.522;7.266;2023-07-31T16:42:53;21.30;99.90
1447;DHT22;717;51.522;7.266;2023-07-31T16:45:23;21.30;99.90